Time;durP1;ratioP1;P1;durP2;ratioP2;P2;SDS_P1;SDS_P2;PMS_P1;PMS_P2;Temp;Humidity;BMP_temperature;BMP_pressure;BME280_temperature;BME280_humidity;BME280_pressure;Samples;Min_cycle;Max_cycle;Signal;HPM_P1;HPM_P2
2022/08/03 00:01:18;;;;;;;1.08;0.82;;;;;;;25.11;44.86;99511.59;5128963;27;20485;-82
2022/08/03 00:03:44;;;;;;;1.67;0.93;;;;;;;25.14;45.36;99539.19;5129168;27;20122;-78
2022/08/03 00:06:10;;;;;;;3.45;1.60;;;;;;;24.98;45.65;99534.13;5129036;27;20423;-80
2022/08/03 00:08:35;;;;;;;1.02;0.85;;;;;;;25.06;45.54;99538.09;5128812;27;20416;-81
2022/08/03 00:11:01;;;;;;;1.33;0.98;;;;;;;24.86;46.00;99531.53;5129014;27;20019;-79
2022/08/03 00:13:26;;;;;;;1.52;1.13;;;;;;;24.92;45.94;99523.81;5128944;27;20062;-79
2022/08/03 00:15:52;;;;;;;4.85;1.23;;;;;;;24.71;46.40;99539.81;5110179;27;20039;-79
2022/08/03 00:18:18;;;;;;;3.63;1.50;;;;;;;24.64;47.00;99530.47;5128527;27;20095;-79
2022/08/03 00:20:44;;;;;;;1.98;1.33;;;;;;;24.45;47.51;99521.06;5128459;27;20038;-82
2022/08/03 00:23:09;;;;;;;1.35;0.98;;;;;;;24.58;47.46;99520.16;5128874;27;20491;-79
2022/08/03 00:25:35;;;;;;;1.90;1.38;;;;;;;24.81;47.08;99532.75;5128237;27;20037;-79
2022/08/03 00:28:02;;;;;;;2.50;1.42;;;;;;;24.79;47.35;99545.50;5128496;27;20031;-79
2022/08/03 00:30:28;;;;;;;1.05;0.95;;;;;;;24.69;47.82;99528.28;5128556;27;20026;-79
2022/08/03 00:32:54;;;;;;;0.73;0.73;;;;;;;24.72;48.12;99521.81;5128216;27;20148;-80
2022/08/03 00:35:19;;;;;;;2.05;1.58;;;;;;;24.67;48.22;99516.78;5128381;27;20103;-79
2022/08/03 00:37:45;;;;;;;1.85;1.40;;;;;;;24.66;48.73;99529.38;5128470;27;20767;-79
2022/08/03 00:40:12;;;;;;;2.00;1.25;;;;;;;24.51;49.15;99537.75;5128135;27;20049;-81
2022/08/03 00:42:55;;;;;;;2.30;1.50;;;;;;;24.40;49.31;99534.00;5128452;27;20027;-79
2022/08/03 00:45:26;;;;;;;1.55;1.20;;;;;;;24.36;50.00;99546.03;5128355;27;20027;-79
2022/08/03 00:48:00;;;;;;;2.38;1.10;;;;;;;24.21;50.53;99545.31;5128613;27;20031;-79
2022/08/03 00:50:28;;;;;;;8.98;2.15;;;;;;;24.06;50.74;99543.75;5128442;27;20027;-79
2022/08/03 00:52:56;;;;;;;1.48;1.15;;;;;;;23.96;50.87;99540.88;5127846;27;20031;-79
2022/08/03 00:55:23;;;;;;;2.30;1.23;;;;;;;24.16;50.45;99555.59;5127527;27;20532;-79
2022/08/03 00:57:48;;;;;;;2.17;1.25;;;;;;;23.93;50.58;99551.88;5128149;27;20454;-79
2022/08/03 01:00:20;;;;;;;2.63;1.38;;;;;;;23.95;50.73;99558.00;5128418;27;20038;-79
2022/08/03 01:02:46;;;;;;;1.63;1.30;;;;;;;23.78;51.44;99560.03;5127986;27;20027;-79
2022/08/03 01:05:12;;;;;;;2.10;1.65;;;;;;;23.55;52.30;99553.63;5128425;27;20035;-79
2022/08/03 01:07:49;;;;;;;1.83;1.30;;;;;;;23.70;52.03;99567.81;5127981;27;20416;-79
2022/08/03 01:10:44;;;;;;;1.80;1.33;;;;;;;23.64;51.90;99544.03;5128201;27;20405;-79
2022/08/03 01:13:28;;;;;;;1.40;1.30;;;;;;;23.66;51.69;99547.47;5127702;27;20043;-79
2022/08/03 01:16:30;;;;;;;3.05;1.38;;;;;;;23.77;52.11;99558.34;5128027;27;20476;-80
2022/08/03 01:19:08;;;;;;;3.28;1.70;;;;;;;23.60;52.49;99550.59;5127872;27;20042;-78
2022/08/03 01:21:57;;;;;;;5.60;1.67;;;;;;;23.71;52.65;99556.09;5127669;28;20031;-79
2022/08/03 01:24:40;;;;;;;2.15;1.55;;;;;;;23.73;52.48;99558.69;5109539;28;20063;-80
2022/08/03 01:27:16;;;;;;;4.32;2.17;;;;;;;23.65;52.17;99547.56;5127621;28;20046;-81
2022/08/03 01:29:48;;;;;;;3.33;0.90;;;;;;;23.69;52.29;99563.41;5128309;28;20031;-81
2022/08/03 01:32:18;;;;;;;1.55;1.08;;;;;;;23.54;52.57;99548.34;5127829;28;20043;-80
2022/08/03 01:34:54;;;;;;;2.33;1.20;;;;;;;23.57;52.86;99558.91;5128259;28;20468;-81
2022/08/03 01:37:25;;;;;;;2.10;1.40;;;;;;;23.52;52.89;99564.59;5127625;28;20035;-80
2022/08/03 01:39:54;;;;;;;3.75;2.00;;;;;;;23.45;53.12;99559.75;5127574;28;20028;-79
2022/08/03 01:42:21;;;;;;;2.38;1.38;;;;;;;23.41;52.99;99559.97;5127366;28;20110;-80
2022/08/03 01:44:49;;;;;;;2.25;1.33;;;;;;;23.41;52.96;99565.38;5127807;28;20608;-79
2022/08/03 01:47:18;;;;;;;2.65;1.63;;;;;;;23.31;52.89;99536.50;5128050;28;20031;-79
2022/08/03 01:49:45;;;;;;;1.77;1.30;;;;;;;23.36;53.37;99537.06;5127671;28;20039;-79
2022/08/03 01:52:11;;;;;;;2.60;1.67;;;;;;;;;;5108876;28;20420;-79
2022/08/03 01:54:41;;;;;;;3.05;1.30;;;;;;;23.41;53.67;99557.28;5127159;28;20440;-79
2022/08/03 01:57:09;;;;;;;2.72;2.17;;;;;;;23.40;53.83;99560.09;5127482;28;20027;-79
2022/08/03 01:59:36;;;;;;;3.40;1.88;;;;;;;23.38;53.71;99549.44;5127380;28;20023;-80
2022/08/03 02:02:04;;;;;;;10.13;1.95;;;;;;;23.49;53.83;99566.66;5127398;28;20118;-79
2022/08/03 02:04:30;;;;;;;2.35;1.55;;;;;;;23.44;53.90;99558.06;5127225;28;20526;-79
2022/08/03 02:06:57;;;;;;;1.65;1.20;;;;;;;;;;5110236;27;20065;-79
2022/08/03 02:09:24;;;;;;;2.30;1.65;;;;;;;23.13;53.98;99527.94;5131252;27;20042;-79
2022/08/03 02:11:52;;;;;;;2.65;1.90;;;;;;;23.06;54.30;99546.28;5131142;27;20914;-81
2022/08/03 02:14:19;;;;;;;3.05;1.50;;;;;;;23.09;54.41;99559.53;5130946;27;20039;-80
2022/08/03 02:16:47;;;;;;;2.88;1.88;;;;;;;23.11;54.51;99559.44;5131281;27;20023;-80
2022/08/03 02:19:14;;;;;;;2.50;1.75;;;;;;;23.02;54.47;99539.41;5130878;27;20035;-79
2022/08/03 02:21:43;;;;;;;2.15;1.63;;;;;;;23.02;54.09;99564.47;5130950;27;20059;-79
2022/08/03 02:24:09;;;;;;;3.40;2.10;;;;;;;23.01;54.03;99559.19;5130995;27;20132;-80
2022/08/03 02:26:37;;;;;;;2.08;1.23;;;;;;;23.10;53.97;99560.41;5130699;27;20803;-79
2022/08/03 02:29:10;;;;;;;2.35;1.48;;;;;;;23.04;54.35;99554.44;5130887;27;20023;-79
2022/08/03 02:31:37;;;;;;;1.98;1.33;;;;;;;22.98;54.33;99554.88;5130997;27;20042;-82
2022/08/03 02:34:08;;;;;;;3.08;1.88;;;;;;;22.93;54.32;99548.97;5130865;27;20043;-81
2022/08/03 02:36:38;;;;;;;4.45;1.35;;;;;;;23.03;54.76;99563.50;5130726;27;20027;-79
2022/08/03 02:39:05;;;;;;;4.15;1.55;;;;;;;22.97;54.68;99553.16;5130651;27;20094;-80
2022/08/03 02:41:36;;;;;;;1.75;1.48;;;;;;;23.07;54.61;99562.31;5130631;27;20504;-80
2022/08/03 02:44:06;;;;;;;2.33;1.45;;;;;;;23.17;54.82;99575.16;5130339;27;20035;-82
2022/08/03 02:46:35;;;;;;;2.72;1.73;;;;;;;23.15;54.76;99558.25;5130437;27;20031;-79
2022/08/03 02:49:02;;;;;;;1.65;1.45;;;;;;;23.21;54.79;99576.66;5130641;27;20035;-80
2022/08/03 02:51:31;;;;;;;2.50;1.48;;;;;;;23.08;54.72;99541.66;5130185;27;20198;-79
2022/08/03 02:54:00;;;;;;;1.15;1.00;;;;;;;23.25;54.18;99575.50;5130233;27;20035;-79
2022/08/03 02:56:27;;;;;;;2.45;1.58;;;;;;;23.18;53.92;99564.28;5130403;27;20042;-82
2022/08/03 02:58:54;;;;;;;2.85;1.48;;;;;;;23.12;54.28;99571.94;5130353;27;20038;-79
2022/08/03 03:01:22;;;;;;;4.72;1.45;;;;;;;23.12;53.89;99563.84;5130495;27;20043;-79
2022/08/03 03:03:49;;;;;;;3.60;2.25;;;;;;;23.07;54.06;99564.16;5130259;27;20042;-79
2022/08/03 03:06:16;;;;;;;1.88;1.50;;;;;;;22.95;54.35;99562.28;5130023;27;20895;-79
2022/08/03 03:08:42;;;;;;;2.13;1.40;;;;;;;22.85;54.83;99564.75;5130154;27;20035;-79
2022/08/03 03:11:10;;;;;;;3.63;1.63;;;;;;;22.92;54.96;99574.13;5129840;27;20504;-79
2022/08/03 03:13:36;;;;;;;4.60;1.83;;;;;;;23.06;54.68;99594.69;5129880;27;20500;-80
2022/08/03 03:16:05;;;;;;;3.53;2.10;;;;;;;22.96;54.56;99581.03;5129757;27;20028;-79
2022/08/03 03:18:32;;;;;;;2.28;1.42;;;;;;;22.79;54.99;99594.75;5129458;27;20027;-78
2022/08/03 03:21:00;;;;;;;3.78;2.10;;;;;;;22.90;54.65;99600.25;5129662;27;20034;-79
2022/08/03 03:23:27;;;;;;;4.50;1.80;;;;;;;22.94;55.11;99608.97;5134084;27;20531;-84
2022/08/03 03:25:55;;;;;;;1.92;1.52;;;;;;;22.97;55.00;99585.44;5150867;27;20030;-80
2022/08/03 03:28:22;;;;;;;2.30;1.63;;;;;;;22.89;55.00;99580.59;5150830;27;20026;-79
2022/08/03 03:30:48;;;;;;;1.63;1.00;;;;;;;22.97;54.81;99592.63;5150373;27;20194;-80
2022/08/03 03:33:14;;;;;;;2.20;1.58;;;;;;;22.98;54.90;99591.66;5150590;27;20042;-79
2022/08/03 03:35:42;;;;;;;2.38;1.63;;;;;;;23.14;55.14;99600.47;5150087;27;20084;-78
2022/08/03 03:38:07;;;;;;;2.95;1.83;;;;;;;23.01;55.42;99594.16;5150051;27;20034;-83
2022/08/03 03:40:37;;;;;;;2.35;1.75;;;;;;;23.15;55.52;99609.38;5150054;27;20037;-80
2022/08/03 03:43:06;;;;;;;2.97;1.67;;;;;;;23.08;55.63;99600.84;5150060;27;20027;-78
2022/08/03 03:45:33;;;;;;;3.08;1.63;;;;;;;23.15;55.18;99602.16;5150103;27;20041;-79
2022/08/03 03:48:01;;;;;;;2.90;2.08;;;;;;;22.97;54.89;99598.88;5150296;27;20039;-78
2022/08/03 03:50:28;;;;;;;3.78;1.85;;;;;;;23.02;55.37;99620.94;5149476;27;20030;-79
2022/08/03 03:52:54;;;;;;;2.35;1.60;;;;;;;22.93;55.60;99624.25;5146306;27;20023;-80
2022/08/03 03:55:19;;;;;;;2.60;1.63;;;;;;;23.02;55.82;99620.94;5129104;27;20504;-80
2022/08/03 03:57:45;;;;;;;2.65;2.00;;;;;;;23.17;54.82;99612.81;5129127;27;20191;-80
2022/08/03 04:00:12;;;;;;;3.10;1.55;;;;;;;23.19;54.79;99601.00;5127841;27;20490;-81
2022/08/03 04:02:38;;;;;;;6.82;2.47;;;;;;;23.32;54.60;99600.13;5109897;27;20039;-81
2022/08/03 04:10:59;;;;;;;2.78;2.10;;;;;;;23.63;53.90;99609.59;5129178;27;20130;-80
2022/08/03 04:13:50;;;;;;;1.58;1.15;;;;;;;23.83;53.42;99629.75;5128849;27;20035;-82
2022/08/03 04:16:19;;;;;;;2.05;1.30;;;;;;;23.90;53.42;99628.38;5117049;27;20092;-80
2022/08/03 04:18:49;;;;;;;1.63;1.40;;;;;;;23.87;54.04;99622.34;5128849;27;20038;-81
2022/08/03 04:21:18;;;;;;;2.63;1.48;;;;;;;24.00;54.13;99633.94;5128919;27;20463;-81
2022/08/03 04:23:47;;;;;;;18.38;9.57;;;;;;;24.17;53.72;99639.97;5128602;27;20545;-81
2022/08/03 04:26:15;;;;;;;13.35;7.95;;;;;;;24.19;52.84;99641.59;5128460;27;20019;-80
2022/08/03 04:28:44;;;;;;;13.30;9.40;;;;;;;24.10;52.43;99631.47;5128538;27;20029;-79
2022/08/03 04:31:11;;;;;;;7.47;4.93;;;;;;;23.98;51.98;99633.22;5128558;27;20042;-81
2022/08/03 04:33:39;;;;;;;2.65;2.17;;;;;;;24.01;51.94;99641.06;5128679;27;20470;-80
2022/08/03 04:36:08;;;;;;;5.28;2.58;;;;;;;24.17;51.55;99656.97;5128398;27;20031;-80
2022/08/03 04:38:39;;;;;;;2.92;1.25;;;;;;;23.94;52.13;99637.09;5127798;27;20511;-81
2022/08/03 04:41:07;;;;;;;3.38;1.95;;;;;;;24.02;52.96;99652.69;5128836;27;20377;-80
2022/08/03 04:43:34;;;;;;;16.77;5.80;;;;;;;24.18;52.55;99655.16;5128428;27;20079;-80
2022/08/03 04:46:01;;;;;;;6.35;4.47;;;;;;;24.12;51.97;99657.31;5128636;27;20064;-79
2022/08/03 04:48:27;;;;;;;8.90;3.78;;;;;;;24.20;51.18;99648.69;5128185;27;20027;-79
2022/08/03 04:50:53;;;;;;;6.00;2.63;;;;;;;24.29;50.90;99664.19;5127965;27;21008;-79
2022/08/03 04:53:19;;;;;;;3.65;2.03;;;;;;;24.21;51.67;99663.03;5128155;27;20030;-79
2022/08/03 04:55:44;;;;;;;2.63;1.63;;;;;;;24.30;51.43;99665.06;5128186;27;20027;-79
2022/08/03 04:58:11;;;;;;;6.63;3.88;;;;;;;24.33;50.82;99664.84;5128481;27;20031;-79
2022/08/03 05:00:37;;;;;;;4.72;2.58;;;;;;;24.05;50.74;99630.91;5127941;27;20058;-79
2022/08/03 05:03:02;;;;;;;3.15;2.22;;;;;;;24.42;50.83;99650.69;5127887;27;20065;-80
2022/08/03 05:05:28;;;;;;;3.97;2.60;;;;;;;24.49;51.34;99656.47;5128179;27;20052;-82
2022/08/03 05:07:55;;;;;;;9.20;2.97;;;;;;;24.31;51.53;99661.38;5127943;27;20035;-79
2022/08/03 05:10:20;;;;;;;3.05;2.03;;;;;;;24.17;51.90;99653.44;5127677;27;20572;-79
2022/08/03 05:12:47;;;;;;;3.53;1.60;;;;;;;24.23;51.44;99658.38;5128101;27;20027;-78
2022/08/03 05:15:13;;;;;;;3.70;1.92;;;;;;;24.41;51.52;99669.66;5127748;27;20121;-79
2022/08/03 05:17:39;;;;;;;3.40;2.30;;;;;;;24.38;51.86;99681.53;5127835;27;20175;-78
2022/08/03 05:20:05;;;;;;;3.85;2.08;;;;;;;24.52;52.00;99676.97;5127983;28;20125;-80
2022/08/03 05:22:30;;;;;;;2.78;1.52;;;;;;;24.59;50.83;99665.66;5127847;28;20065;-80
2022/08/03 05:24:57;;;;;;;2.47;1.65;;;;;;;24.84;50.45;99669.22;5127532;28;20086;-80
2022/08/03 05:27:22;;;;;;;2.53;1.52;;;;;;;24.79;49.66;99656.06;5127861;28;20023;-79
2022/08/03 05:29:49;;;;;;;2.13;1.20;;;;;;;25.09;48.40;99653.88;5128021;28;20083;-82
2022/08/03 05:32:15;;;;;;;3.95;2.03;;;;;;;25.42;47.68;99669.34;5127539;28;20023;-79
2022/08/03 05:34:41;;;;;;;3.17;1.48;;;;;;;25.18;47.78;99656.72;5127816;28;20519;-82
2022/08/03 05:37:07;;;;;;;2.58;1.65;;;;;;;25.08;48.84;99669.19;5127445;28;20485;-80
2022/08/03 05:39:33;;;;;;;3.25;1.98;;;;;;;25.07;48.27;99672.88;5126947;28;20042;-80
2022/08/03 05:41:59;;;;;;;1.42;1.00;;;;;;;24.87;47.63;99684.28;5131282;27;20038;-79
2022/08/03 05:44:24;;;;;;;1.95;1.55;;;;;;;24.76;48.33;99690.50;5131480;27;20493;-80
2022/08/03 05:46:51;;;;;;;1.25;1.15;;;;;;;24.52;48.27;99701.25;5131762;27;20054;-79
2022/08/03 05:49:17;;;;;;;2.67;2.00;;;;;;;24.82;47.15;99688.22;5131574;27;20105;-79
2022/08/03 05:51:42;;;;;;;1.45;1.15;;;;;;;24.46;49.44;99681.81;5131480;27;20042;-82
2022/08/03 05:54:08;;;;;;;1.90;1.27;;;;;;;24.77;48.68;99687.69;5131330;27;20035;-80
2022/08/03 05:56:33;;;;;;;2.40;1.30;;;;;;;25.29;48.34;99704.53;5131591;27;20035;-80
2022/08/03 05:58:59;;;;;;;2.58;1.42;;;;;;;25.25;47.18;99680.53;5131063;27;20027;-79
2022/08/03 06:01:24;;;;;;;1.88;1.17;;;;;;;25.13;48.13;99672.41;5131793;27;20035;-79
2022/08/03 06:03:51;;;;;;;1.55;1.08;;;;;;;25.43;47.59;99683.72;5131453;27;20038;-83
2022/08/03 06:06:16;;;;;;;2.28;1.50;;;;;;;25.65;47.54;99693.69;5131149;27;20035;-80
2022/08/03 06:08:43;;;;;;;1.60;1.10;;;;;;;25.50;46.23;99701.13;5131376;27;20093;-79
2022/08/03 06:11:08;;;;;;;2.13;1.25;;;;;;;25.58;45.48;99703.25;5131741;27;20039;-79
2022/08/03 06:13:34;;;;;;;2.17;1.40;;;;;;;25.38;46.82;99692.16;5131187;27;20495;-79
2022/08/03 06:16:01;;;;;;;2.00;1.02;;;;;;;25.59;45.44;99711.22;5131273;27;20032;-79
2022/08/03 06:18:26;;;;;;;2.20;1.40;;;;;;;25.71;46.19;99694.06;5130920;27;20045;-79
2022/08/03 06:20:52;;;;;;;2.42;1.67;;;;;;;25.90;44.61;99703.44;5130959;27;20023;-79
2022/08/03 06:23:18;;;;;;;1.27;0.98;;;;;;;25.88;45.21;99706.25;5130915;27;20027;-80
2022/08/03 06:25:43;;;;;;;7.85;1.05;;;;;;;26.16;44.44;99706.78;5130606;27;20039;-83
2022/08/03 06:28:09;;;;;;;1.92;1.35;;;;;;;26.01;45.55;99689.97;5130978;27;20059;-79
2022/08/03 06:30:35;;;;;;;6.00;2.08;;;;;;;26.37;44.96;99709.63;5130855;27;20730;-79
2022/08/03 06:33:00;;;;;;;7.10;1.80;;;;;;;26.25;43.61;99710.63;5130315;27;20043;-79
2022/08/03 06:35:26;;;;;;;2.45;1.15;;;;;;;26.20;44.82;99724.50;5130953;27;20453;-80
2022/08/03 06:37:53;;;;;;;1.77;1.38;;;;;;;25.96;45.91;99708.34;5112032;27;20488;-81
2022/08/03 06:40:28;;;;;;;4.10;1.83;;;;;;;26.25;44.63;99700.66;5130508;27;20047;-79
2022/08/03 06:42:54;;;;;;;2.78;1.55;;;;;;;26.72;44.26;99724.00;5130578;27;20087;-79
2022/08/03 06:45:20;;;;;;;9.75;3.15;;;;;;;26.90;43.66;99708.94;5130555;27;20039;-80
2022/08/03 06:47:46;;;;;;;2.58;1.95;;;;;;;27.00;43.26;99711.72;5130728;27;20041;-79
2022/08/03 06:50:11;;;;;;;4.47;2.72;;;;;;;27.05;44.14;99717.63;5130603;27;20381;-79
2022/08/03 06:52:37;;;;;;;5.35;2.38;;;;;;;27.03;43.10;99724.16;5129814;27;20023;-80
2022/08/03 06:55:03;;;;;;;2.53;1.67;;;;;;;26.84;43.73;99722.97;5130438;27;20504;-79
2022/08/03 06:57:29;;;;;;;5.10;2.85;;;;;;;26.93;44.55;99715.97;5130255;27;20483;-82
2022/08/03 07:00:00;;;;;;;3.38;1.42;;;;;;;27.08;43.68;99705.66;5129887;27;20066;-81
2022/08/03 07:02:26;;;;;;;1.90;1.45;;;;;;;27.18;45.07;99730.16;5130152;27;20030;-79
2022/08/03 07:04:52;;;;;;;3.78;1.90;;;;;;;27.16;43.52;99698.63;5130346;27;20103;-82
2022/08/03 07:07:18;;;;;;;2.30;1.45;;;;;;;27.65;43.85;99709.00;5130213;27;20028;-80
2022/08/03 07:09:43;;;;;;;2.25;1.70;;;;;;;27.64;42.92;99713.56;5130257;27;20031;-82
2022/08/03 07:12:09;;;;;;;1.95;1.40;;;;;;;27.69;45.28;99686.94;5129861;27;20043;-80
2022/08/03 07:14:34;;;;;;;5.60;2.10;;;;;;;28.28;42.07;99708.09;5130282;27;20031;-80
2022/08/03 07:16:59;;;;;;;4.38;3.15;;;;;;;28.42;41.23;99699.56;5130213;27;20073;-79
2022/08/03 07:19:25;;;;;;;4.80;4.22;;;;;;;29.04;41.62;99710.31;5110900;27;20049;-80
2022/08/03 07:21:50;;;;;;;4.32;3.67;;;;;;;29.48;39.73;99712.63;5130355;27;20031;-79
2022/08/03 07:24:16;;;;;;;3.38;2.80;;;;;;;29.49;38.93;99715.22;5110988;27;20099;-83
2022/08/03 07:26:41;;;;;;;3.78;2.42;;;;;;;29.88;37.76;99704.28;5129720;27;20070;-81
2022/08/03 07:29:07;;;;;;;6.07;2.97;;;;;;;29.87;37.70;99696.28;5129704;27;20039;-80
2022/08/03 07:31:32;;;;;;;3.47;2.28;;;;;;;29.69;38.06;99709.72;5129395;27;20030;-82
2022/08/03 07:33:58;;;;;;;3.15;1.73;;;;;;;29.88;37.39;99707.00;5129520;27;20143;-81
2022/08/03 07:36:24;;;;;;;5.18;2.20;;;;;;;30.44;37.56;99702.53;5110718;27;20096;-81
2022/08/03 07:38:49;;;;;;;2.30;1.52;;;;;;;30.70;36.53;99693.66;5129835;27;20035;-80
2022/08/03 07:41:15;;;;;;;5.90;1.92;;;;;;;30.89;36.00;99677.19;5111027;27;20039;-80
2022/08/03 07:43:41;;;;;;;4.82;1.98;;;;;;;31.54;35.76;99692.47;5129529;27;20037;-81
2022/08/03 07:46:06;;;;;;;2.50;1.73;;;;;;;31.79;34.48;99698.06;5129437;27;20034;-81
2022/08/03 07:48:32;;;;;;;2.40;1.58;;;;;;;31.62;35.31;99683.47;5129285;27;20488;-80
2022/08/03 07:50:58;;;;;;;3.72;2.17;;;;;;;31.67;34.91;99685.72;5129754;27;20042;-81
2022/08/03 07:53:23;;;;;;;4.10;1.90;;;;;;;31.87;34.59;99686.34;5129025;27;20031;-80
2022/08/03 07:55:49;;;;;;;3.63;2.08;;;;;;;32.13;35.33;99702.75;5129464;27;20046;-83
2022/08/03 07:58:16;;;;;;;2.42;1.60;;;;;;;31.40;35.23;99706.59;5129469;27;20540;-81
2022/08/03 08:00:43;;;;;;;2.72;1.55;;;;;;;31.22;35.32;99706.66;5129212;27;20051;-80
2022/08/03 08:03:08;;;;;;;1.80;1.33;;;;;;;31.36;34.78;99689.72;5129586;27;20431;-80
2022/08/03 08:05:34;;;;;;;2.63;1.70;;;;;;;32.05;34.96;99699.94;5128886;27;20019;-79
2022/08/03 08:08:01;;;;;;;3.40;2.35;;;;;;;32.41;33.91;99708.84;5129010;27;20050;-81
2022/08/03 08:10:27;;;;;;;3.10;2.13;;;;;;;32.40;33.62;99722.66;5129086;27;20065;-81
2022/08/03 08:12:53;;;;;;;2.95;2.00;;;;;;;32.49;33.39;99694.38;5129007;27;20507;-80
2022/08/03 08:15:19;;;;;;;2.00;1.58;;;;;;;32.53;33.73;99705.81;5129026;27;20038;-80
2022/08/03 08:17:49;;;;;;;1.83;1.65;;;;;;;32.67;33.56;99713.41;5129328;27;20035;-81
2022/08/03 08:20:17;;;;;;;3.25;1.90;;;;;;;32.64;33.67;99700.97;5128843;27;20531;-81
2022/08/03 08:22:43;;;;;;;4.05;2.00;;;;;;;32.91;32.91;99711.78;5129153;27;20034;-81
2022/08/03 08:25:09;;;;;;;4.20;1.50;;;;;;;32.45;33.01;99706.66;5128650;27;20031;-80
2022/08/03 08:27:43;;;;;;;2.85;2.00;;;;;;;32.48;34.11;99706.31;5128944;27;20030;-82
2022/08/03 08:30:09;;;;;;;2.45;1.73;;;;;;;32.88;32.91;99714.84;5128369;27;20030;-81
2022/08/03 08:32:36;;;;;;;2.63;1.80;;;;;;;32.80;33.00;99705.59;5128404;27;20047;-80
2022/08/03 08:35:03;;;;;;;2.75;1.85;;;;;;;32.97;32.24;99689.25;5128457;27;20419;-81
2022/08/03 08:37:28;;;;;;;2.20;1.58;;;;;;;32.76;34.50;99692.44;5128501;27;20035;-81
2022/08/03 08:39:55;;;;;;;1.85;1.30;;;;;;;33.23;32.33;99701.94;5128218;27;20058;-81
2022/08/03 08:42:21;;;;;;;3.28;1.85;;;;;;;33.51;31.66;99695.13;5128233;27;20026;-81
2022/08/03 08:44:47;;;;;;;1.85;1.45;;;;;;;33.46;32.17;99685.72;5128677;27;20413;-80
2022/08/03 08:47:13;;;;;;;2.42;1.52;;;;;;;33.26;31.63;99707.94;5128598;27;20051;-80
2022/08/03 08:49:40;;;;;;;3.85;1.95;;;;;;;33.07;31.52;99695.41;5128357;27;20106;-84
2022/08/03 08:52:07;;;;;;;2.95;2.30;;;;;;;33.25;31.82;99680.78;5128180;27;20509;-80
2022/08/03 08:54:35;;;;;;;3.22;1.95;;;;;;;33.48;32.13;99680.94;5128317;27;20031;-80
2022/08/03 08:57:03;;;;;;;2.55;1.67;;;;;;;33.50;32.00;99678.88;5128210;27;20123;-80
2022/08/03 08:59:33;;;;;;;2.58;1.80;;;;;;;33.98;32.38;99688.06;5128378;27;20035;-81
2022/08/03 09:01:59;;;;;;;4.13;2.13;;;;;;;33.65;32.91;99676.31;5128208;27;20122;-80
2022/08/03 09:04:24;;;;;;;2.45;1.83;;;;;;;34.41;31.41;99694.09;5128017;27;20114;-80
2022/08/03 09:06:51;;;;;;;3.50;2.05;;;;;;;34.04;32.55;99670.09;5128499;27;20481;-80
2022/08/03 09:09:17;;;;;;;7.38;2.47;;;;;;;34.18;32.12;99683.03;5127793;27;20031;-81
2022/08/03 09:11:42;;;;;;;2.78;1.38;;;;;;;34.37;31.58;99684.56;5127749;27;20413;-82
2022/08/03 09:14:09;;;;;;;2.38;1.42;;;;;;;34.25;31.71;99661.34;5127785;27;20023;-80
2022/08/03 09:16:35;;;;;;;2.05;1.60;;;;;;;34.52;32.68;99678.31;5127252;27;20038;-81
2022/08/03 09:19:12;;;;;;;5.28;4.78;;;;;;;34.79;30.26;99683.31;5127675;27;20027;-81
2022/08/03 09:21:38;;;;;;;3.03;2.08;;;;;;;35.20;30.67;99676.69;5127336;28;20031;-81
2022/08/03 09:24:05;;;;;;;5.65;5.15;;;;;;;35.36;29.62;99678.50;5126913;28;20083;-80
2022/08/03 09:26:33;;;;;;;3.55;2.28;;;;;;;35.24;29.37;99677.19;5127318;28;20031;-80
2022/08/03 09:28:58;;;;;;;3.85;2.60;;;;;;;34.85;30.37;99686.38;5127431;28;20027;-80
2022/08/03 09:31:31;;;;;;;3.28;1.95;;;;;;;34.69;29.85;99679.06;5127249;28;20118;-81
2022/08/03 09:33:59;;;;;;;3.53;2.58;;;;;;;33.71;31.66;99668.28;5127374;27;20051;-80
2022/08/03 09:36:39;;;;;;;2.38;1.60;;;;;;;33.90;32.37;99671.66;5127112;28;20060;-80
2022/08/03 09:39:09;;;;;;;2.50;1.33;;;;;;;34.04;31.26;99672.84;5126485;28;20026;-82
2022/08/03 09:41:36;;;;;;;2.15;1.23;;;;;;;34.04;31.30;99662.72;5127187;28;20037;-80
2022/08/03 09:44:01;;;;;;;6.00;1.80;;;;;;;33.68;32.64;99665.03;5127134;28;20496;-80
2022/08/03 09:46:30;;;;;;;3.25;1.80;;;;;;;33.89;32.04;99645.34;5127013;28;20027;-80
2022/08/03 09:49:11;;;;;;;3.45;1.08;;;;;;;32.98;30.99;99641.78;5126672;28;20031;-81
2022/08/03 09:51:38;;;;;;;1.60;1.17;;;;;;;32.57;32.56;99663.53;5127310;28;20052;-80
2022/08/03 09:54:03;;;;;;;1.58;1.10;;;;;;;32.63;31.83;99666.44;5108297;28;20435;-80
2022/08/03 09:56:46;;;;;;;5.38;1.90;;;;;;;32.03;33.77;99656.47;5127342;28;20023;-80
2022/08/03 09:59:21;;;;;;;4.30;3.22;;;;;;;32.29;33.90;99666.50;5127238;28;20027;-81
2022/08/03 10:01:47;;;;;;;2.65;1.70;;;;;;;32.80;33.78;99661.06;5127107;28;20428;-81
2022/08/03 10:04:15;;;;;;;1.17;1.08;;;;;;;33.37;30.84;99658.41;5127176;28;20027;-81
2022/08/03 10:06:45;;;;;;;2.28;1.35;;;;;;;33.73;30.49;99658.03;5127806;28;20751;-80
2022/08/03 10:09:15;;;;;;;3.15;1.83;;;;;;;33.76;30.82;99632.22;5127086;28;20134;-80
2022/08/03 10:11:42;;;;;;;2.72;1.40;;;;;;;34.08;30.11;99655.03;5127072;28;20027;-81
2022/08/03 10:14:17;;;;;;;2.45;1.40;;;;;;;33.71;29.33;99630.00;5127433;28;20062;-82
2022/08/03 10:16:45;;;;;;;3.75;2.13;;;;;;;34.19;27.99;99646.44;5127366;28;20127;-82
2022/08/03 10:19:12;;;;;;;2.35;1.23;;;;;;;34.75;28.33;99651.84;5127178;28;20057;-81
2022/08/03 10:21:40;;;;;;;1.45;0.85;;;;;;;34.23;28.70;99630.50;5127017;28;20084;-84
2022/08/03 10:24:09;;;;;;;1.92;1.13;;;;;;;33.72;29.21;99639.06;5127003;28;20031;-81
2022/08/03 10:26:40;;;;;;;1.80;1.02;;;;;;;33.77;30.95;99624.84;5127179;27;20035;-81
2022/08/03 10:29:13;;;;;;;2.30;1.48;;;;;;;33.48;29.08;99629.84;5130151;27;20411;-81
2022/08/03 10:31:43;;;;;;;2.00;1.48;;;;;;;33.39;30.95;99606.28;5130651;27;20038;-81
2022/08/03 10:34:24;;;;;;;5.32;2.10;;;;;;;33.73;29.74;99627.09;5130431;27;20051;-83
2022/08/03 10:36:54;;;;;;;4.25;3.65;;;;;;;33.63;29.59;99624.53;5130944;27;20055;-80
2022/08/03 10:39:21;;;;;;;7.00;6.25;;;;;;;33.45;30.38;99624.72;5130474;27;20096;-81
2022/08/03 10:41:49;;;;;;;2.90;2.03;;;;;;;33.27;31.33;99624.91;5130827;27;20032;-85
2022/08/03 10:44:19;;;;;;;1.73;1.38;;;;;;;33.47;29.76;99619.94;5130620;27;20031;-80
2022/08/03 10:46:47;;;;;;;1.75;1.65;;;;;;;33.72;30.96;99626.25;5130791;27;20023;-81
2022/08/03 10:49:14;;;;;;;3.72;1.60;;;;;;;32.98;30.88;99623.53;5111725;27;20096;-80
2022/08/03 10:51:43;;;;;;;2.33;1.58;;;;;;;33.19;31.05;99614.84;5130263;27;20121;-81
2022/08/03 10:57:33;;;;;;;1.73;1.23;;;;;;;33.46;31.63;99606.44;5130391;27;20047;-83
2022/08/03 10:57:51;;;;;;;2.50;1.55;;;;;;;33.94;30.18;99617.44;5130265;27;20066;-81
2022/08/03 11:00:23;;;;;;;2.88;1.98;;;;;;;33.89;30.31;99617.97;5120215;27;20049;-81
2022/08/03 11:03:03;;;;;;;2.60;1.80;;;;;;;33.93;29.30;99618.50;5130337;27;20027;-81
2022/08/03 11:05:34;;;;;;;4.30;3.63;;;;;;;33.98;29.46;99595.03;5130450;27;20580;-81
2022/08/03 11:08:29;;;;;;;3.58;2.25;;;;;;;34.07;29.65;99615.84;5130566;27;20038;-81
2022/08/03 11:10:58;;;;;;;4.82;1.65;;;;;;;34.10;28.80;99591.94;5150682;27;20026;-81
2022/08/03 11:13:27;;;;;;;2.45;1.63;;;;;;;34.81;29.08;99600.13;5150749;27;20050;-81
2022/08/03 11:15:55;;;;;;;2.10;1.33;;;;;;;34.52;29.55;99607.13;5151096;27;20117;-80
2022/08/03 11:18:21;;;;;;;2.83;1.90;;;;;;;34.36;28.96;99591.66;5150429;27;20106;-83
2022/08/03 11:20:58;;;;;;;4.00;2.88;;;;;;;34.19;28.94;99604.53;5131721;27;20039;-80
2022/08/03 11:23:45;;;;;;;2.38;1.80;;;;;;;33.73;29.94;99589.66;5150649;27;20039;-79
2022/08/03 11:26:20;;;;;;;4.40;1.90;;;;;;;34.18;29.66;99584.50;5150460;27;21024;-80
2022/08/03 11:28:47;;;;;;;2.63;1.90;;;;;;;34.12;28.61;99573.44;5150225;27;20483;-80
2022/08/03 11:31:21;;;;;;;3.67;2.22;;;;;;;34.52;29.94;99585.22;5150705;27;20034;-80
2022/08/03 11:34:06;;;;;;;3.08;1.73;;;;;;;33.84;29.24;99584.84;5150569;27;20054;-82
2022/08/03 11:37:18;;;;;;;3.42;1.60;;;;;;;34.04;29.65;99583.38;5150607;27;20086;-79
2022/08/03 11:39:45;;;;;;;1.20;1.10;;;;;;;33.75;29.96;99581.28;5045112;28;20043;-80
2022/08/03 11:42:23;;;;;;;3.13;2.72;;;;;;;33.71;29.12;99580.78;5045483;28;20029;-81
2022/08/03 11:44:56;;;;;;;2.05;1.63;;;;;;;33.83;28.77;99566.72;5108709;27;20062;-81
2022/08/03 11:47:23;;;;;;;1.70;0.98;;;;;;;34.08;28.26;99562.84;5150336;27;20138;-83